sensor_id;sensor_type;location;lat;lon;timestamp;P1;durP1;ratioP1;P2;durP2;ratioP2
36815;SDS011;71982;52.294;6.760;2024-02-21T00:00:37;46.55;;;21.83;;
36815;SDS011;71982;52.294;6.760;2024-02-21T00:03:14;45.28;;;20.38;;
36815;SDS011;71982;52.294;6.760;2024-02-21T00:05:41;40.45;;;19.45;;
36815;SDS011;71982;52.294;6.760;2024-02-21T00:08:09;41.47;;;20.60;;
36815;SDS011;71982;52.294;6.760;2024-02-21T00:10:37;43.20;;;20.55;;
36815;SDS011;71982;52.294;6.760;2024-02-21T00:13:11;48.22;;;20.27;;
36815;SDS011;71982;52.294;6.760;2024-02-21T00:15:38;39.80;;;19.45;;
36815;SDS011;71982;52.294;6.760;2024-02-21T00:18:06;39.95;;;18.42;;
36815;SDS011;71982;52.294;6.760;2024-02-21T00:20:37;51.50;;;22.02;;
36815;SDS011;71982;52.294;6.760;2024-02-21T00:23:04;41.85;;;19.30;;
36815;SDS011;71982;52.294;6.760;2024-02-21T00:25:31;41.35;;;19.10;;
36815;SDS011;71982;52.294;6.760;2024-02-21T00:28:02;43.92;;;19.73;;
36815;SDS011;71982;52.294;6.760;2024-02-21T00:33:10;38.00;;;18.13;;
36815;SDS011;71982;52.294;6.760;2024-02-21T00:35:37;34.50;;;18.00;;
36815;SDS011;71982;52.294;6.760;2024-02-21T00:38:04;45.33;;;18.58;;
36815;SDS011;71982;52.294;6.760;2024-02-21T00:40:31;35.72;;;18.60;;
36815;SDS011;71982;52.294;6.760;2024-02-21T00:43:02;36.92;;;18.67;;
36815;SDS011;71982;52.294;6.760;2024-02-21T00:45:31;30.73;;;17.45;;
36815;SDS011;71982;52.294;6.760;2024-02-21T00:48:01;36.42;;;17.63;;
36815;SDS011;71982;52.294;6.760;2024-02-21T00:50:29;32.72;;;16.60;;
36815;SDS011;71982;52.294;6.760;2024-02-21T00:52:57;37.47;;;18.85;;
36815;SDS011;71982;52.294;6.760;2024-02-21T00:55:24;36.88;;;19.30;;
36815;SDS011;71982;52.294;6.760;2024-02-21T00:57:55;39.33;;;17.95;;
36815;SDS011;71982;52.294;6.760;2024-02-21T01:00:26;46.00;;;18.85;;
36815;SDS011;71982;52.294;6.760;2024-02-21T01:02:57;33.65;;;18.40;;
36815;SDS011;71982;52.294;6.760;2024-02-21T01:05:26;33.47;;;16.90;;
36815;SDS011;71982;52.294;6.760;2024-02-21T01:07:56;31.17;;;17.15;;
36815;SDS011;71982;52.294;6.760;2024-02-21T01:10:26;33.75;;;15.55;;
36815;SDS011;71982;52.294;6.760;2024-02-21T01:12:53;41.83;;;16.48;;
36815;SDS011;71982;52.294;6.760;2024-02-21T01:15:20;33.92;;;16.50;;
36815;SDS011;71982;52.294;6.760;2024-02-21T01:17:48;38.00;;;18.08;;
36815;SDS011;71982;52.294;6.760;2024-02-21T01:20:19;36.22;;;16.45;;
36815;SDS011;71982;52.294;6.760;2024-02-21T01:22:46;33.20;;;18.00;;
36815;SDS011;71982;52.294;6.760;2024-02-21T01:25:14;33.60;;;15.70;;
36815;SDS011;71982;52.294;6.760;2024-02-21T01:27:45;41.40;;;16.52;;
36815;SDS011;71982;52.294;6.760;2024-02-21T01:30:12;37.20;;;16.67;;
36815;SDS011;71982;52.294;6.760;2024-02-21T01:32:43;35.35;;;15.70;;
36815;SDS011;71982;52.294;6.760;2024-02-21T01:35:12;36.53;;;16.50;;
36815;SDS011;71982;52.294;6.760;2024-02-21T01:37:39;33.13;;;16.05;;
36815;SDS011;71982;52.294;6.760;2024-02-21T01:40:06;34.30;;;15.30;;
36815;SDS011;71982;52.294;6.760;2024-02-21T01:42:37;35.58;;;15.52;;
36815;SDS011;71982;52.294;6.760;2024-02-21T01:45:05;32.33;;;15.32;;
36815;SDS011;71982;52.294;6.760;2024-02-21T01:47:49;34.70;;;15.90;;
36815;SDS011;71982;52.294;6.760;2024-02-21T01:50:18;37.50;;;16.17;;
36815;SDS011;71982;52.294;6.760;2024-02-21T01:52:53;37.92;;;16.25;;
36815;SDS011;71982;52.294;6.760;2024-02-21T01:55:26;31.77;;;16.30;;
36815;SDS011;71982;52.294;6.760;2024-02-21T01:57:53;37.83;;;15.93;;
36815;SDS011;71982;52.294;6.760;2024-02-21T02:00:21;37.30;;;15.00;;
36815;SDS011;71982;52.294;6.760;2024-02-21T02:02:52;37.27;;;18.87;;
36815;SDS011;71982;52.294;6.760;2024-02-21T02:05:21;30.33;;;15.30;;
36815;SDS011;71982;52.294;6.760;2024-02-21T02:07:48;34.60;;;16.38;;
36815;SDS011;71982;52.294;6.760;2024-02-21T02:10:15;28.50;;;15.32;;
36815;SDS011;71982;52.294;6.760;2024-02-21T02:12:42;27.65;;;14.38;;
36815;SDS011;71982;52.294;6.760;2024-02-21T02:15:09;37.00;;;15.63;;
36815;SDS011;71982;52.294;6.760;2024-02-21T02:17:36;32.45;;;16.33;;
36815;SDS011;71982;52.294;6.760;2024-02-21T02:20:04;36.67;;;17.38;;
36815;SDS011;71982;52.294;6.760;2024-02-21T02:22:35;34.72;;;16.92;;
36815;SDS011;71982;52.294;6.760;2024-02-21T02:25:11;41.92;;;17.35;;
36815;SDS011;71982;52.294;6.760;2024-02-21T02:27:42;40.58;;;15.50;;
36815;SDS011;71982;52.294;6.760;2024-02-21T02:30:11;35.40;;;15.68;;
36815;SDS011;71982;52.294;6.760;2024-02-21T02:32:38;30.98;;;15.52;;
36815;SDS011;71982;52.294;6.760;2024-02-21T02:35:06;34.90;;;16.83;;
36815;SDS011;71982;52.294;6.760;2024-02-21T02:37:37;30.45;;;15.98;;
36815;SDS011;71982;52.294;6.760;2024-02-21T02:40:06;31.60;;;14.85;;
36815;SDS011;71982;52.294;6.760;2024-02-21T02:42:40;31.48;;;15.35;;
36815;SDS011;71982;52.294;6.760;2024-02-21T02:45:11;28.63;;;15.10;;
36815;SDS011;71982;52.294;6.760;2024-02-21T02:47:40;34.85;;;15.02;;
36815;SDS011;71982;52.294;6.760;2024-02-21T02:50:08;37.17;;;15.43;;
36815;SDS011;71982;52.294;6.760;2024-02-21T02:52:36;31.20;;;15.48;;
36815;SDS011;71982;52.294;6.760;2024-02-21T02:55:03;29.02;;;15.43;;
36815;SDS011;71982;52.294;6.760;2024-02-21T02:57:32;28.08;;;17.13;;
36815;SDS011;71982;52.294;6.760;2024-02-21T03:00:01;33.10;;;14.63;;
36815;SDS011;71982;52.294;6.760;2024-02-21T03:02:32;30.08;;;14.45;;
36815;SDS011;71982;52.294;6.760;2024-02-21T03:05:02;35.38;;;15.52;;
36815;SDS011;71982;52.294;6.760;2024-02-21T03:07:38;36.80;;;14.30;;
36815;SDS011;71982;52.294;6.760;2024-02-21T03:10:06;35.65;;;16.17;;
36815;SDS011;71982;52.294;6.760;2024-02-21T03:12:36;30.23;;;14.65;;
36815;SDS011;71982;52.294;6.760;2024-02-21T03:15:04;31.77;;;17.67;;
36815;SDS011;71982;52.294;6.760;2024-02-21T03:17:34;33.10;;;15.20;;
36815;SDS011;71982;52.294;6.760;2024-02-21T03:20:01;36.20;;;16.45;;
36815;SDS011;71982;52.294;6.760;2024-02-21T03:22:30;36.30;;;15.85;;
36815;SDS011;71982;52.294;6.760;2024-02-21T03:24:57;31.90;;;15.77;;
36815;SDS011;71982;52.294;6.760;2024-02-21T03:27:25;33.63;;;15.45;;
36815;SDS011;71982;52.294;6.760;2024-02-21T03:29:56;33.20;;;16.77;;
36815;SDS011;71982;52.294;6.760;2024-02-21T03:32:25;36.45;;;15.93;;
36815;SDS011;71982;52.294;6.760;2024-02-21T03:34:53;29.40;;;15.00;;
36815;SDS011;71982;52.294;6.760;2024-02-21T03:37:20;37.35;;;15.82;;
36815;SDS011;71982;52.294;6.760;2024-02-21T03:39:49;34.60;;;18.23;;
36815;SDS011;71982;52.294;6.760;2024-02-21T03:42:16;34.22;;;16.23;;
36815;SDS011;71982;52.294;6.760;2024-02-21T03:44:43;35.85;;;17.95;;
36815;SDS011;71982;52.294;6.760;2024-02-21T03:47:13;30.70;;;18.33;;
36815;SDS011;71982;52.294;6.760;2024-02-21T03:49:43;36.95;;;17.50;;
36815;SDS011;71982;52.294;6.760;2024-02-21T03:52:11;34.38;;;16.85;;
36815;SDS011;71982;52.294;6.760;2024-02-21T03:54:38;33.42;;;16.65;;
36815;SDS011;71982;52.294;6.760;2024-02-21T03:57:05;37.92;;;17.13;;
36815;SDS011;71982;52.294;6.760;2024-02-21T03:59:34;35.00;;;17.35;;
36815;SDS011;71982;52.294;6.760;2024-02-21T04:02:04;35.22;;;17.38;;
36815;SDS011;71982;52.294;6.760;2024-02-21T04:04:42;35.80;;;17.27;;
36815;SDS011;71982;52.294;6.760;2024-02-21T04:07:11;39.67;;;18.67;;
36815;SDS011;71982;52.294;6.760;2024-02-21T04:09:38;29.83;;;16.05;;
36815;SDS011;71982;52.294;6.760;2024-02-21T04:12:10;39.50;;;17.48;;
36815;SDS011;71982;52.294;6.760;2024-02-21T04:14:40;33.20;;;16.58;;
36815;SDS011;71982;52.294;6.760;2024-02-21T04:17:08;29.88;;;15.90;;
36815;SDS011;71982;52.294;6.760;2024-02-21T04:19:35;34.72;;;17.00;;
36815;SDS011;71982;52.294;6.760;2024-02-21T04:22:04;38.50;;;17.30;;
36815;SDS011;71982;52.294;6.760;2024-02-21T04:24:31;34.58;;;16.63;;
36815;SDS011;71982;52.294;6.760;2024-02-21T04:26:58;33.63;;;17.27;;
36815;SDS011;71982;52.294;6.760;2024-02-21T04:29:25;33.88;;;16.50;;
36815;SDS011;71982;52.294;6.760;2024-02-21T04:31:53;31.88;;;16.42;;
36815;SDS011;71982;52.294;6.760;2024-02-21T04:34:19;34.75;;;16.10;;
36815;SDS011;71982;52.294;6.760;2024-02-21T04:36:49;35.58;;;16.98;;
36815;SDS011;71982;52.294;6.760;2024-02-21T04:39:22;34.92;;;18.23;;
36815;SDS011;71982;52.294;6.760;2024-02-21T04:41:49;29.30;;;14.93;;
36815;SDS011;71982;52.294;6.760;2024-02-21T04:44:19;45.88;;;16.83;;
36815;SDS011;71982;52.294;6.760;2024-02-21T04:46:47;30.95;;;15.43;;
36815;SDS011;71982;52.294;6.760;2024-02-21T04:49:14;32.20;;;16.08;;
36815;SDS011;71982;52.294;6.760;2024-02-21T04:51:42;32.65;;;15.77;;
36815;SDS011;71982;52.294;6.760;2024-02-21T04:54:11;39.97;;;16.08;;
36815;SDS011;71982;52.294;6.760;2024-02-21T04:56:38;31.23;;;15.45;;
36815;SDS011;71982;52.294;6.760;2024-02-21T04:59:10;29.30;;;15.35;;
36815;SDS011;71982;52.294;6.760;2024-02-21T05:01:38;33.88;;;15.65;;
36815;SDS011;71982;52.294;6.760;2024-02-21T05:04:05;34.15;;;16.13;;
36815;SDS011;71982;52.294;6.760;2024-02-21T05:06:36;28.42;;;16.27;;
36815;SDS011;71982;52.294;6.760;2024-02-21T05:11:36;28.83;;;14.65;;
36815;SDS011;71982;52.294;6.760;2024-02-21T05:14:05;34.40;;;14.38;;
36815;SDS011;71982;52.294;6.760;2024-02-21T05:16:32;31.58;;;14.30;;
36815;SDS011;71982;52.294;6.760;2024-02-21T05:19:02;31.17;;;14.55;;
36815;SDS011;71982;52.294;6.760;2024-02-21T05:21:29;25.80;;;14.95;;
36815;SDS011;71982;52.294;6.760;2024-02-21T05:23:56;31.35;;;15.20;;
36815;SDS011;71982;52.294;6.760;2024-02-21T05:26:27;32.17;;;13.48;;
36815;SDS011;71982;52.294;6.760;2024-02-21T05:28:57;34.88;;;14.65;;
36815;SDS011;71982;52.294;6.760;2024-02-21T05:31:25;30.50;;;16.08;;
36815;SDS011;71982;52.294;6.760;2024-02-21T05:34:09;28.90;;;14.98;;
36815;SDS011;71982;52.294;6.760;2024-02-21T05:36:37;25.23;;;14.55;;
36815;SDS011;71982;52.294;6.760;2024-02-21T05:39:04;22.33;;;12.95;;
36815;SDS011;71982;52.294;6.760;2024-02-21T05:41:31;31.60;;;14.15;;
36815;SDS011;71982;52.294;6.760;2024-02-21T05:44:02;28.38;;;13.85;;
36815;SDS011;71982;52.294;6.760;2024-02-21T05:46:30;24.92;;;13.07;;
36815;SDS011;71982;52.294;6.760;2024-02-21T05:48:58;25.83;;;12.98;;
36815;SDS011;71982;52.294;6.760;2024-02-21T05:51:25;29.00;;;14.38;;
36815;SDS011;71982;52.294;6.760;2024-02-21T05:53:52;24.63;;;13.10;;
36815;SDS011;71982;52.294;6.760;2024-02-21T05:56:24;29.08;;;12.30;;
36815;SDS011;71982;52.294;6.760;2024-02-21T05:58:53;32.20;;;13.20;;
36815;SDS011;71982;52.294;6.760;2024-02-21T06:01:21;21.38;;;12.32;;
36815;SDS011;71982;52.294;6.760;2024-02-21T06:03:49;31.55;;;12.77;;
36815;SDS011;71982;52.294;6.760;2024-02-21T06:06:16;28.33;;;11.45;;
36815;SDS011;71982;52.294;6.760;2024-02-21T06:08:43;31.77;;;12.88;;
36815;SDS011;71982;52.294;6.760;2024-02-21T06:11:10;27.42;;;12.35;;
36815;SDS011;71982;52.294;6.760;2024-02-21T06:13:38;27.17;;;12.27;;
36815;SDS011;71982;52.294;6.760;2024-02-21T06:16:06;26.38;;;11.93;;
36815;SDS011;71982;52.294;6.760;2024-02-21T06:18:36;23.40;;;11.85;;
36815;SDS011;71982;52.294;6.760;2024-02-21T06:21:03;27.63;;;11.93;;
36815;SDS011;71982;52.294;6.760;2024-02-21T06:23:32;24.67;;;11.60;;
36815;SDS011;71982;52.294;6.760;2024-02-21T06:26:03;23.65;;;11.88;;
36815;SDS011;71982;52.294;6.760;2024-02-21T06:28:38;26.00;;;11.48;;
36815;SDS011;71982;52.294;6.760;2024-02-21T06:31:05;21.67;;;10.63;;
36815;SDS011;71982;52.294;6.760;2024-02-21T06:33:37;23.08;;;10.30;;
36815;SDS011;71982;52.294;6.760;2024-02-21T06:36:08;24.38;;;10.95;;
36815;SDS011;71982;52.294;6.760;2024-02-21T06:38:35;23.00;;;10.35;;
36815;SDS011;71982;52.294;6.760;2024-02-21T06:41:02;26.70;;;11.95;;
36815;SDS011;71982;52.294;6.760;2024-02-21T06:43:33;24.40;;;10.75;;
36815;SDS011;71982;52.294;6.760;2024-02-21T06:46:03;29.63;;;12.38;;
36815;SDS011;71982;52.294;6.760;2024-02-21T06:48:36;24.13;;;10.30;;
36815;SDS011;71982;52.294;6.760;2024-02-21T06:51:05;26.48;;;11.90;;
36815;SDS011;71982;52.294;6.760;2024-02-21T06:53:34;17.88;;;9.65;;
36815;SDS011;71982;52.294;6.760;2024-02-21T06:56:04;20.65;;;10.65;;
36815;SDS011;71982;52.294;6.760;2024-02-21T06:58:32;20.20;;;9.23;;
36815;SDS011;71982;52.294;6.760;2024-02-21T07:01:07;23.10;;;8.98;;
36815;SDS011;71982;52.294;6.760;2024-02-21T07:03:38;19.92;;;8.65;;
36815;SDS011;71982;52.294;6.760;2024-02-21T07:06:06;20.67;;;9.90;;
36815;SDS011;71982;52.294;6.760;2024-02-21T07:08:42;17.45;;;8.98;;
36815;SDS011;71982;52.294;6.760;2024-02-21T07:11:09;21.60;;;8.75;;
36815;SDS011;71982;52.294;6.760;2024-02-21T07:13:38;20.88;;;9.45;;
36815;SDS011;71982;52.294;6.760;2024-02-21T07:16:07;17.80;;;8.77;;
36815;SDS011;71982;52.294;6.760;2024-02-21T07:18:37;19.95;;;8.35;;
36815;SDS011;71982;52.294;6.760;2024-02-21T07:21:08;22.67;;;9.60;;
36815;SDS011;71982;52.294;6.760;2024-02-21T07:23:40;19.30;;;8.57;;
36815;SDS011;71982;52.294;6.760;2024-02-21T07:26:09;21.60;;;9.70;;
36815;SDS011;71982;52.294;6.760;2024-02-21T07:28:36;20.90;;;8.52;;
36815;SDS011;71982;52.294;6.760;2024-02-21T07:31:03;16.00;;;8.35;;
36815;SDS011;71982;52.294;6.760;2024-02-21T07:33:30;23.65;;;9.30;;
36815;SDS011;71982;52.294;6.760;2024-02-21T07:35:57;23.77;;;9.88;;
36815;SDS011;71982;52.294;6.760;2024-02-21T07:38:26;21.50;;;9.77;;
36815;SDS011;71982;52.294;6.760;2024-02-21T07:40:54;18.20;;;9.60;;
36815;SDS011;71982;52.294;6.760;2024-02-21T07:43:21;21.02;;;10.82;;
36815;SDS011;71982;52.294;6.760;2024-02-21T07:45:48;23.23;;;10.73;;
36815;SDS011;71982;52.294;6.760;2024-02-21T07:48:15;22.67;;;10.60;;
36815;SDS011;71982;52.294;6.760;2024-02-21T07:50:43;20.90;;;9.77;;
36815;SDS011;71982;52.294;6.760;2024-02-21T07:53:11;23.27;;;10.82;;
36815;SDS011;71982;52.294;6.760;2024-02-21T07:55:39;24.13;;;10.25;;
36815;SDS011;71982;52.294;6.760;2024-02-21T07:58:06;28.23;;;11.30;;
36815;SDS011;71982;52.294;6.760;2024-02-21T08:00:38;29.23;;;11.38;;
36815;SDS011;71982;52.294;6.760;2024-02-21T08:03:06;28.83;;;11.57;;
36815;SDS011;71982;52.294;6.760;2024-02-21T09:07:09;17.98;;;7.43;;
36815;SDS011;71982;52.294;6.760;2024-02-21T09:09:36;20.48;;;7.65;;
36815;SDS011;71982;52.294;6.760;2024-02-21T09:12:05;14.50;;;7.30;;
36815;SDS011;71982;52.294;6.760;2024-02-21T09:14:37;15.57;;;7.78;;
36815;SDS011;71982;52.294;6.760;2024-02-21T09:17:04;18.08;;;7.93;;
36815;SDS011;71982;52.294;6.760;2024-02-21T09:19:31;22.17;;;7.80;;
36815;SDS011;71982;52.294;6.760;2024-02-21T09:22:00;22.45;;;9.68;;
36815;SDS011;71982;52.294;6.760;2024-02-21T09:24:29;14.80;;;7.75;;
36815;SDS011;71982;52.294;6.760;2024-02-21T09:26:55;15.93;;;7.53;;
36815;SDS011;71982;52.294;6.760;2024-02-21T09:29:25;16.33;;;7.32;;
36815;SDS011;71982;52.294;6.760;2024-02-21T09:31:52;15.30;;;7.45;;
36815;SDS011;71982;52.294;6.760;2024-02-21T09:34:19;16.23;;;7.93;;
36815;SDS011;71982;52.294;6.760;2024-02-21T09:36:46;19.05;;;7.72;;
36815;SDS011;71982;52.294;6.760;2024-02-21T09:39:13;18.80;;;9.25;;
36815;SDS011;71982;52.294;6.760;2024-02-21T09:41:45;18.08;;;7.60;;
36815;SDS011;71982;52.294;6.760;2024-02-21T09:44:20;16.00;;;7.63;;
36815;SDS011;71982;52.294;6.760;2024-02-21T09:46:51;15.90;;;7.45;;
36815;SDS011;71982;52.294;6.760;2024-02-21T09:49:29;14.20;;;8.02;;
36815;SDS011;71982;52.294;6.760;2024-02-21T09:51:57;18.80;;;7.95;;
36815;SDS011;71982;52.294;6.760;2024-02-21T09:54:28;22.42;;;8.50;;
36815;SDS011;71982;52.294;6.760;2024-02-21T09:56:57;14.88;;;7.55;;
36815;SDS011;71982;52.294;6.760;2024-02-21T09:59:24;18.27;;;7.90;;
36815;SDS011;71982;52.294;6.760;2024-02-21T10:01:54;15.00;;;6.82;;
36815;SDS011;71982;52.294;6.760;2024-02-21T10:04:21;16.75;;;7.90;;
36815;SDS011;71982;52.294;6.760;2024-02-21T10:19:44;16.20;;;7.50;;
36815;SDS011;71982;52.294;6.760;2024-02-21T10:22:18;19.48;;;8.27;;
36815;SDS011;71982;52.294;6.760;2024-02-21T10:24:51;15.15;;;7.00;;
36815;SDS011;71982;52.294;6.760;2024-02-21T10:27:23;12.95;;;6.82;;
36815;SDS011;71982;52.294;6.760;2024-02-21T10:29:54;16.95;;;8.02;;
36815;SDS011;71982;52.294;6.760;2024-02-21T10:32:21;13.90;;;6.43;;
36815;SDS011;71982;52.294;6.760;2024-02-21T10:35:00;12.00;;;7.05;;
36815;SDS011;71982;52.294;6.760;2024-02-21T10:37:28;13.00;;;6.65;;
36815;SDS011;71982;52.294;6.760;2024-02-21T10:39:55;14.65;;;6.78;;
36815;SDS011;71982;52.294;6.760;2024-02-21T10:42:23;18.67;;;6.93;;
36815;SDS011;71982;52.294;6.760;2024-02-21T10:44:55;14.77;;;6.78;;
36815;SDS011;71982;52.294;6.760;2024-02-21T10:47:31;19.77;;;7.95;;
36815;SDS011;71982;52.294;6.760;2024-02-21T10:50:07;15.02;;;6.43;;
36815;SDS011;71982;52.294;6.760;2024-02-21T10:52:46;15.20;;;5.85;;
36815;SDS011;71982;52.294;6.760;2024-02-21T10:55:25;10.65;;;6.32;;
36815;SDS011;71982;52.294;6.760;2024-02-21T10:58:11;13.40;;;6.35;;
36815;SDS011;71982;52.294;6.760;2024-02-21T11:00:43;12.75;;;5.03;;
36815;SDS011;71982;52.294;6.760;2024-02-21T11:03:10;16.50;;;5.57;;
36815;SDS011;71982;52.294;6.760;2024-02-21T11:05:41;13.55;;;5.05;;
36815;SDS011;71982;52.294;6.760;2024-02-21T11:08:10;10.25;;;5.05;;
36815;SDS011;71982;52.294;6.760;2024-02-21T11:10:45;10.93;;;5.22;;
36815;SDS011;71982;52.294;6.760;2024-02-21T11:13:32;9.98;;;4.78;;
36815;SDS011;71982;52.294;6.760;2024-02-21T11:16:06;10.35;;;4.93;;
36815;SDS011;71982;52.294;6.760;2024-02-21T11:18:37;9.63;;;4.90;;
36815;SDS011;71982;52.294;6.760;2024-02-21T11:21:18;8.75;;;4.38;;
36815;SDS011;71982;52.294;6.760;2024-02-21T11:23:56;10.25;;;4.55;;
36815;SDS011;71982;52.294;6.760;2024-02-21T11:26:30;9.23;;;4.70;;
36815;SDS011;71982;52.294;6.760;2024-02-21T11:29:03;12.68;;;4.80;;
36815;SDS011;71982;52.294;6.760;2024-02-21T11:31:40;6.75;;;4.10;;
36815;SDS011;71982;52.294;6.760;2024-02-21T11:34:12;10.55;;;3.78;;
36815;SDS011;71982;52.294;6.760;2024-02-21T11:36:47;6.32;;;3.28;;
36815;SDS011;71982;52.294;6.760;2024-02-21T11:39:21;7.18;;;3.53;;
36815;SDS011;71982;52.294;6.760;2024-02-21T11:42:02;9.85;;;3.38;;
36815;SDS011;71982;52.294;6.760;2024-02-21T11:44:32;8.07;;;3.37;;
36815;SDS011;71982;52.294;6.760;2024-02-21T11:47:07;6.10;;;3.70;;
36815;SDS011;71982;52.294;6.760;2024-02-21T11:49:38;6.13;;;3.33;;
36815;SDS011;71982;52.294;6.760;2024-02-21T11:52:15;10.43;;;4.07;;
36815;SDS011;71982;52.294;6.760;2024-02-21T11:54:50;7.68;;;3.72;;
36815;SDS011;71982;52.294;6.760;2024-02-21T11:57:25;7.47;;;4.18;;
36815;SDS011;71982;52.294;6.760;2024-02-21T11:59:56;6.88;;;4.28;;
36815;SDS011;71982;52.294;6.760;2024-02-21T12:02:37;9.60;;;4.43;;
36815;SDS011;71982;52.294;6.760;2024-02-21T12:05:06;7.88;;;3.58;;
36815;SDS011;71982;52.294;6.760;2024-02-21T12:07:38;9.35;;;4.15;;
36815;SDS011;71982;52.294;6.760;2024-02-21T12:10:09;7.57;;;4.70;;
36815;SDS011;71982;52.294;6.760;2024-02-21T12:12:36;10.93;;;4.90;;
36815;SDS011;71982;52.294;6.760;2024-02-21T12:15:10;13.20;;;5.03;;
36815;SDS011;71982;52.294;6.760;2024-02-21T12:17:39;12.05;;;5.10;;
36815;SDS011;71982;52.294;6.760;2024-02-21T12:20:06;14.30;;;4.82;;
36815;SDS011;71982;52.294;6.760;2024-02-21T12:22:38;14.27;;;5.13;;
36815;SDS011;71982;52.294;6.760;2024-02-21T12:25:17;10.45;;;5.18;;
36815;SDS011;71982;52.294;6.760;2024-02-21T12:27:45;12.30;;;5.13;;
36815;SDS011;71982;52.294;6.760;2024-02-21T12:30:16;14.07;;;5.72;;
36815;SDS011;71982;52.294;6.760;2024-02-21T12:32:43;12.05;;;5.22;;
36815;SDS011;71982;52.294;6.760;2024-02-21T12:35:11;16.60;;;5.28;;
36815;SDS011;71982;52.294;6.760;2024-02-21T12:37:39;12.43;;;6.07;;
36815;SDS011;71982;52.294;6.760;2024-02-21T12:40:10;15.27;;;6.00;;
36815;SDS011;71982;52.294;6.760;2024-02-21T12:42:46;13.13;;;5.53;;
36815;SDS011;71982;52.294;6.760;2024-02-21T12:45:15;19.83;;;6.03;;
36815;SDS011;71982;52.294;6.760;2024-02-21T12:47:42;14.60;;;5.35;;
36815;SDS011;71982;52.294;6.760;2024-02-21T12:50:09;10.80;;;5.47;;
36815;SDS011;71982;52.294;6.760;2024-02-21T12:52:37;15.57;;;5.18;;
36815;SDS011;71982;52.294;6.760;2024-02-21T12:55:06;16.67;;;5.40;;
36815;SDS011;71982;52.294;6.760;2024-02-21T12:57:37;12.20;;;4.97;;
36815;SDS011;71982;52.294;6.760;2024-02-21T13:00:09;16.70;;;5.35;;
36815;SDS011;71982;52.294;6.760;2024-02-21T13:02:39;15.43;;;4.82;;
36815;SDS011;71982;52.294;6.760;2024-02-21T13:05:06;14.68;;;5.18;;
36815;SDS011;71982;52.294;6.760;2024-02-21T13:07:38;10.73;;;4.63;;
36815;SDS011;71982;52.294;6.760;2024-02-21T13:10:07;14.23;;;5.13;;
36815;SDS011;71982;52.294;6.760;2024-02-21T13:12:34;13.55;;;4.75;;
36815;SDS011;71982;52.294;6.760;2024-02-21T13:15:02;13.73;;;5.10;;
36815;SDS011;71982;52.294;6.760;2024-02-21T13:17:29;11.30;;;4.47;;
36815;SDS011;71982;52.294;6.760;2024-02-21T13:19:58;8.65;;;4.07;;
36815;SDS011;71982;52.294;6.760;2024-02-21T13:22:25;10.38;;;4.15;;
36815;SDS011;71982;52.294;6.760;2024-02-21T13:24:56;9.15;;;4.78;;
36815;SDS011;71982;52.294;6.760;2024-02-21T13:27:27;13.18;;;4.82;;
36815;SDS011;71982;52.294;6.760;2024-02-21T13:29:56;12.73;;;4.90;;
36815;SDS011;71982;52.294;6.760;2024-02-21T13:32:32;16.20;;;4.93;;
36815;SDS011;71982;52.294;6.760;2024-02-21T13:35:03;12.57;;;4.55;;
36815;SDS011;71982;52.294;6.760;2024-02-21T13:37:31;11.90;;;5.05;;
36815;SDS011;71982;52.294;6.760;2024-02-21T13:40:02;9.93;;;4.53;;
36815;SDS011;71982;52.294;6.760;2024-02-21T13:42:31;13.70;;;4.20;;
36815;SDS011;71982;52.294;6.760;2024-02-21T13:45:01;12.77;;;3.95;;
36815;SDS011;71982;52.294;6.760;2024-02-21T13:47:30;14.75;;;4.90;;
36815;SDS011;71982;52.294;6.760;2024-02-21T13:50:00;14.50;;;4.03;;
36815;SDS011;71982;52.294;6.760;2024-02-21T13:52:29;12.50;;;4.47;;
36815;SDS011;71982;52.294;6.760;2024-02-21T13:54:57;13.05;;;4.28;;
36815;SDS011;71982;52.294;6.760;2024-02-21T15:58:45;8.13;;;3.45;;
36815;SDS011;71982;52.294;6.760;2024-02-21T16:01:12;11.80;;;3.90;;
36815;SDS011;71982;52.294;6.760;2024-02-21T16:03:44;11.65;;;4.43;;
36815;SDS011;71982;52.294;6.760;2024-02-21T16:06:11;15.23;;;3.58;;
36815;SDS011;71982;52.294;6.760;2024-02-21T16:08:39;13.02;;;5.25;;
36815;SDS011;71982;52.294;6.760;2024-02-21T16:11:06;10.35;;;4.45;;
36815;SDS011;71982;52.294;6.760;2024-02-21T16:13:43;11.15;;;4.47;;
36815;SDS011;71982;52.294;6.760;2024-02-21T16:16:12;15.02;;;4.88;;
36815;SDS011;71982;52.294;6.760;2024-02-21T16:18:39;15.00;;;5.05;;
36815;SDS011;71982;52.294;6.760;2024-02-21T16:21:06;9.93;;;4.03;;
36815;SDS011;71982;52.294;6.760;2024-02-21T16:23:40;10.10;;;4.47;;
36815;SDS011;71982;52.294;6.760;2024-02-21T16:26:09;12.80;;;4.78;;
36815;SDS011;71982;52.294;6.760;2024-02-21T16:28:36;12.73;;;4.50;;
36815;SDS011;71982;52.294;6.760;2024-02-21T16:31:12;13.18;;;4.88;;
36815;SDS011;71982;52.294;6.760;2024-02-21T16:33:41;11.07;;;4.90;;
36815;SDS011;71982;52.294;6.760;2024-02-21T16:36:19;11.07;;;5.05;;
36815;SDS011;71982;52.294;6.760;2024-02-21T16:38:49;12.98;;;5.05;;
36815;SDS011;71982;52.294;6.760;2024-02-21T16:41:17;13.00;;;4.88;;
36815;SDS011;71982;52.294;6.760;2024-02-21T16:43:45;10.27;;;5.25;;
36815;SDS011;71982;52.294;6.760;2024-02-21T16:46:14;13.38;;;5.13;;
36815;SDS011;71982;52.294;6.760;2024-02-21T16:48:43;13.07;;;5.53;;
36815;SDS011;71982;52.294;6.760;2024-02-21T16:51:14;11.73;;;5.97;;
36815;SDS011;71982;52.294;6.760;2024-02-21T16:53:41;19.50;;;6.40;;
36815;SDS011;71982;52.294;6.760;2024-02-21T16:56:09;16.42;;;6.30;;
36815;SDS011;71982;52.294;6.760;2024-02-21T16:58:36;15.75;;;6.63;;
36815;SDS011;71982;52.294;6.760;2024-02-21T17:01:03;15.93;;;5.90;;
36815;SDS011;71982;52.294;6.760;2024-02-21T17:03:40;19.98;;;6.53;;
36815;SDS011;71982;52.294;6.760;2024-02-21T17:06:09;17.98;;;7.15;;
36815;SDS011;71982;52.294;6.760;2024-02-21T17:08:38;19.25;;;6.88;;
36815;SDS011;71982;52.294;6.760;2024-02-21T17:11:06;19.48;;;6.90;;
36815;SDS011;71982;52.294;6.760;2024-02-21T17:13:40;16.10;;;6.32;;
36815;SDS011;71982;52.294;6.760;2024-02-21T17:16:10;17.60;;;6.57;;
36815;SDS011;71982;52.294;6.760;2024-02-21T17:18:39;13.98;;;5.75;;
36815;SDS011;71982;52.294;6.760;2024-02-21T17:21:06;14.40;;;6.10;;
36815;SDS011;71982;52.294;6.760;2024-02-21T17:23:37;15.18;;;5.85;;
36815;SDS011;71982;52.294;6.760;2024-02-21T17:26:10;12.80;;;5.30;;
36815;SDS011;71982;52.294;6.760;2024-02-21T17:28:37;14.30;;;5.35;;
36815;SDS011;71982;52.294;6.760;2024-02-21T17:31:04;17.52;;;5.55;;
36815;SDS011;71982;52.294;6.760;2024-02-21T17:33:31;12.95;;;5.35;;
36815;SDS011;71982;52.294;6.760;2024-02-21T17:36:03;12.38;;;5.40;;
36815;SDS011;71982;52.294;6.760;2024-02-21T17:38:31;14.35;;;5.25;;
36815;SDS011;71982;52.294;6.760;2024-02-21T17:41:02;13.43;;;5.13;;
36815;SDS011;71982;52.294;6.760;2024-02-21T17:43:30;18.92;;;4.85;;
36815;SDS011;71982;52.294;6.760;2024-02-21T17:46:00;17.95;;;4.93;;
36815;SDS011;71982;52.294;6.760;2024-02-21T17:48:28;13.73;;;5.63;;
36815;SDS011;71982;52.294;6.760;2024-02-21T17:50:55;12.45;;;5.25;;
36815;SDS011;71982;52.294;6.760;2024-02-21T17:53:23;14.93;;;5.97;;
36815;SDS011;71982;52.294;6.760;2024-02-21T17:55:51;11.98;;;5.10;;
36815;SDS011;71982;52.294;6.760;2024-02-21T17:58:21;17.70;;;7.28;;
36815;SDS011;71982;52.294;6.760;2024-02-21T18:00:48;22.63;;;7.43;;
36815;SDS011;71982;52.294;6.760;2024-02-21T18:03:22;10.43;;;5.03;;